createdAt,value
2018-03-01T00:00:04.589Z,976.16
2018-03-01T00:01:04.496Z,976.04
2018-03-01T00:02:04.403Z,976.01
2018-03-01T00:03:04.311Z,975.99
2018-03-01T00:04:04.216Z,975.90
2018-03-01T00:05:04.127Z,975.92
2018-03-01T00:06:04.028Z,975.93
2018-03-01T00:07:03.937Z,975.95
2018-03-01T00:08:03.843Z,975.97
2018-03-01T00:09:03.750Z,975.94
2018-03-01T00:10:03.657Z,975.98
2018-03-01T00:11:03.565Z,975.94
2018-03-01T00:12:03.472Z,975.98
2018-03-01T00:13:03.380Z,975.95
2018-03-01T00:14:03.286Z,975.92
2018-03-01T00:15:03.192Z,975.88
2018-03-01T00:16:03.101Z,975.90
2018-03-01T00:17:03.006Z,975.92
2018-03-01T00:18:02.912Z,975.98
2018-03-01T00:19:02.819Z,976.00
2018-03-01T00:20:02.728Z,976.01
2018-03-01T00:21:02.638Z,976.04
2018-03-01T00:22:02.557Z,976.01
2018-03-01T00:23:02.447Z,975.99
2018-03-01T00:24:02.353Z,976.00
2018-03-01T00:25:02.263Z,975.94
2018-03-01T00:26:02.167Z,975.99
2018-03-01T00:27:02.076Z,975.97
2018-03-01T00:28:01.985Z,976.02
2018-03-01T00:29:01.889Z,975.97
2018-03-01T00:30:01.794Z,975.94
2018-03-01T00:31:01.704Z,976.02
2018-03-01T00:32:01.609Z,976.06
2018-03-01T00:33:01.520Z,976.04
2018-03-01T00:34:01.425Z,976.00
2018-03-01T00:35:01.330Z,976.00
2018-03-01T00:36:01.234Z,976.01
2018-03-01T00:37:01.142Z,975.98
2018-03-01T00:38:01.048Z,975.93
2018-03-01T00:39:00.954Z,975.94
2018-03-01T00:40:00.864Z,975.95
2018-03-01T00:41:00.767Z,975.96
2018-03-01T00:42:00.678Z,975.93
2018-03-01T00:43:00.583Z,975.92
2018-03-01T00:44:00.493Z,975.92
2018-03-01T00:45:00.395Z,975.89
2018-03-01T00:46:00.303Z,975.85
2018-03-01T00:47:00.217Z,975.82
2018-03-01T00:48:00.119Z,975.79
2018-03-01T00:49:00.024Z,975.79
2018-03-01T00:49:59.929Z,975.73
2018-03-01T00:50:59.842Z,975.72
2018-03-01T00:51:59.746Z,975.71
2018-03-01T00:52:59.652Z,975.68
2018-03-01T00:53:59.556Z,975.61
2018-03-01T00:54:59.466Z,975.60
2018-03-01T00:55:59.372Z,975.55
2018-03-01T00:56:59.278Z,975.54
2018-03-01T00:57:59.184Z,975.50
2018-03-01T00:58:59.090Z,975.45
2018-03-01T00:59:59.000Z,975.44
2018-03-01T01:00:58.909Z,975.40
2018-03-01T01:01:58.810Z,975.38
2018-03-01T01:02:58.718Z,975.35
2018-03-01T01:03:58.624Z,975.37
2018-03-01T01:04:58.533Z,975.35
2018-03-01T01:05:58.438Z,975.26
2018-03-01T01:06:58.345Z,975.26
2018-03-01T01:07:58.252Z,975.24
2018-03-01T01:08:58.158Z,975.24
2018-03-01T01:09:58.065Z,975.26
2018-03-01T01:10:57.970Z,975.24
2018-03-01T01:11:57.888Z,975.28
2018-03-01T01:12:57.798Z,975.25
2018-03-01T01:13:57.689Z,975.28
2018-03-01T01:14:57.600Z,975.21
2018-03-01T01:15:57.507Z,975.17
2018-03-01T01:16:57.410Z,975.12
2018-03-01T01:17:57.317Z,975.12
2018-03-01T01:18:57.224Z,975.10
2018-03-01T01:19:57.134Z,975.14
2018-03-01T01:20:57.040Z,975.15
2018-03-01T01:21:56.945Z,975.22
2018-03-01T01:22:56.850Z,975.23
2018-03-01T01:23:56.757Z,975.20
2018-03-01T01:24:56.664Z,975.21
2018-03-01T01:25:56.570Z,975.16
2018-03-01T01:26:56.476Z,975.12
2018-03-01T01:27:56.383Z,975.14
2018-03-01T01:28:56.289Z,975.04
2018-03-01T01:29:56.196Z,975.04
2018-03-01T01:30:56.106Z,975.04
2018-03-01T01:31:56.010Z,975.08
2018-03-01T01:32:55.918Z,975.02
2018-03-01T01:33:55.822Z,975.08
2018-03-01T01:34:55.729Z,975.09
2018-03-01T01:35:55.638Z,975.07
2018-03-01T01:36:55.554Z,975.04
2018-03-01T01:37:55.450Z,974.99
2018-03-01T01:38:55.356Z,974.99
2018-03-01T01:39:55.265Z,975.00
2018-03-01T01:40:55.170Z,974.90
2018-03-01T01:41:55.076Z,974.85
2018-03-01T01:42:54.985Z,974.79
2018-03-01T01:43:54.891Z,974.71
2018-03-01T01:44:54.798Z,974.74
2018-03-01T01:45:54.707Z,974.71
2018-03-01T01:46:54.608Z,974.66
2018-03-01T01:47:54.519Z,974.64
2018-03-01T01:48:54.422Z,974.69
2018-03-01T01:49:54.329Z,974.68
2018-03-01T01:50:54.245Z,974.62
2018-03-01T01:51:54.143Z,974.60
2018-03-01T01:52:54.050Z,974.60
2018-03-01T01:53:53.961Z,974.55
2018-03-01T01:54:53.865Z,974.53
2018-03-01T01:55:53.771Z,974.46
2018-03-01T01:56:53.676Z,974.44
2018-03-01T01:57:53.582Z,974.42
2018-03-01T01:58:53.488Z,974.36
2018-03-01T01:59:53.396Z,974.30
2018-03-01T02:00:53.303Z,974.28
2018-03-01T02:01:53.212Z,974.30
2018-03-01T02:02:53.117Z,974.24
2018-03-01T02:03:53.024Z,974.28
2018-03-01T02:04:52.928Z,974.30
2018-03-01T02:05:52.838Z,974.31
2018-03-01T02:06:52.744Z,974.32
2018-03-01T02:07:52.666Z,974.29
2018-03-01T02:08:52.577Z,974.35
2018-03-01T02:09:52.463Z,974.39
2018-03-01T02:10:52.371Z,974.28
2018-03-01T02:11:52.286Z,974.27
2018-03-01T02:12:52.187Z,974.21
2018-03-01T02:13:52.090Z,974.16
2018-03-01T02:14:51.998Z,974.20
2018-03-01T02:15:51.905Z,974.16
2018-03-01T02:16:51.812Z,974.16
2018-03-01T02:17:51.718Z,974.11
2018-03-01T02:18:51.623Z,974.08
2018-03-01T02:19:51.532Z,974.06
2018-03-01T02:20:51.439Z,974.07
2018-03-01T02:21:51.350Z,974.04
2018-03-01T02:22:51.249Z,974.04
2018-03-01T02:23:51.158Z,974.00
2018-03-01T02:24:51.066Z,973.98
2018-03-01T02:25:50.970Z,973.94
2018-03-01T02:26:50.878Z,973.91
2018-03-01T02:27:50.782Z,973.89
2018-03-01T02:28:50.696Z,973.83
2018-03-01T02:29:50.597Z,973.82
2018-03-01T02:30:50.504Z,973.78
2018-03-01T02:31:50.413Z,973.76
2018-03-01T02:32:50.323Z,973.76
2018-03-01T02:33:50.230Z,973.73
2018-03-01T02:34:50.133Z,973.73
2018-03-01T02:35:50.037Z,973.73
2018-03-01T02:36:49.945Z,973.66
2018-03-01T02:37:49.851Z,973.67
2018-03-01T02:38:49.756Z,973.66
2018-03-01T02:39:49.665Z,973.62
2018-03-01T02:40:49.575Z,973.62
2018-03-01T02:41:49.481Z,973.61
2018-03-01T02:42:49.411Z,973.61
2018-03-01T02:43:49.292Z,973.59
2018-03-01T02:44:49.217Z,973.64
2018-03-01T02:45:49.106Z,973.57
2018-03-01T02:46:49.011Z,973.63
2018-03-01T02:47:48.919Z,973.59
2018-03-01T02:48:48.824Z,973.66
2018-03-01T02:49:48.734Z,973.68
2018-03-01T02:50:48.639Z,973.70
2018-03-01T02:51:48.543Z,973.66
2018-03-01T02:52:48.452Z,973.60
2018-03-01T02:53:48.354Z,973.58
2018-03-01T02:54:48.263Z,973.58
2018-03-01T02:55:48.171Z,973.51
2018-03-01T02:56:48.114Z,973.55
2018-03-01T02:57:47.983Z,973.53
2018-03-01T02:58:47.912Z,973.49
2018-03-01T02:59:47.802Z,973.51
2018-03-01T03:00:47.704Z,973.48
2018-03-01T03:01:47.609Z,973.42
2018-03-01T03:02:47.518Z,973.41
2018-03-01T03:03:47.428Z,973.43
2018-03-01T03:04:47.338Z,973.44
2018-03-01T03:05:47.236Z,973.46
2018-03-01T03:06:47.144Z,973.46
2018-03-01T03:07:47.048Z,973.43
2018-03-01T03:08:46.956Z,973.42
2018-03-01T03:09:46.863Z,973.38
2018-03-01T03:10:46.767Z,973.35
2018-03-01T03:11:46.676Z,973.37
2018-03-01T03:12:46.580Z,973.36
2018-03-01T03:13:46.491Z,973.35
2018-03-01T03:14:46.395Z,973.35
2018-03-01T03:15:46.302Z,973.35
2018-03-01T03:16:46.206Z,973.33
2018-03-01T03:17:46.113Z,973.32
2018-03-01T03:18:46.022Z,973.27
2018-03-01T03:19:45.929Z,973.34
2018-03-01T03:20:45.838Z,973.39
2018-03-01T03:21:45.742Z,973.48
2018-03-01T03:22:45.645Z,973.51
2018-03-01T03:23:45.559Z,973.56
2018-03-01T03:24:45.460Z,973.55
2018-03-01T03:25:45.365Z,973.55
2018-03-01T03:26:45.271Z,973.55
2018-03-01T03:27:45.179Z,973.55
2018-03-01T03:28:45.087Z,973.57
2018-03-01T03:29:44.992Z,973.55
2018-03-01T03:30:44.905Z,973.56
2018-03-01T03:31:44.805Z,973.53
2018-03-01T03:32:44.727Z,973.56
2018-03-01T03:33:44.619Z,973.54
2018-03-01T03:34:44.526Z,973.54
2018-03-01T03:35:44.432Z,973.51
2018-03-01T03:36:44.368Z,973.54
2018-03-01T03:37:44.244Z,973.52
2018-03-01T03:38:44.152Z,973.50
2018-03-01T03:39:44.060Z,973.48
2018-03-01T03:40:43.967Z,973.47
2018-03-01T03:41:43.871Z,973.41
2018-03-01T03:42:43.778Z,973.36
2018-03-01T03:43:43.686Z,973.31
2018-03-01T03:44:43.595Z,973.27
2018-03-01T03:45:43.498Z,973.26
2018-03-01T03:46:43.406Z,973.23
2018-03-01T03:47:43.313Z,973.21
2018-03-01T03:48:43.217Z,973.25
2018-03-01T03:49:43.126Z,973.21
2018-03-01T03:50:43.032Z,973.19
2018-03-01T03:51:42.937Z,973.23
2018-03-01T03:52:42.844Z,973.18
2018-03-01T03:53:42.754Z,973.28
2018-03-01T03:54:42.657Z,973.25
2018-03-01T03:55:42.564Z,973.21
2018-03-01T03:56:42.470Z,973.21
2018-03-01T03:57:42.378Z,973.16
2018-03-01T03:58:42.286Z,973.20
2018-03-01T03:59:42.190Z,973.12
2018-03-01T04:00:42.097Z,973.08
2018-03-01T04:01:42.003Z,973.00
2018-03-01T04:02:41.950Z,972.97
2018-03-01T04:03:41.818Z,972.93
2018-03-01T04:04:41.722Z,972.89
2018-03-01T04:05:41.630Z,972.85
2018-03-01T04:06:41.534Z,972.93
2018-03-01T04:07:41.445Z,972.91
2018-03-01T04:08:41.350Z,973.01
2018-03-01T04:09:41.255Z,972.97
2018-03-01T04:10:41.161Z,972.97
2018-03-01T04:11:41.068Z,972.94
2018-03-01T04:12:40.976Z,972.96
2018-03-01T04:13:40.926Z,972.91
2018-03-01T04:14:40.803Z,972.84
2018-03-01T04:15:40.693Z,972.82
2018-03-01T04:16:40.602Z,972.79
2018-03-01T04:17:40.506Z,972.74
2018-03-01T04:18:40.415Z,972.70
2018-03-01T04:19:40.319Z,972.65
2018-03-01T04:20:40.225Z,972.68
2018-03-01T04:21:40.134Z,972.65
2018-03-01T04:22:40.037Z,972.68
2018-03-01T04:23:39.943Z,972.66
2018-03-01T04:24:39.852Z,972.74
2018-03-01T04:25:39.771Z,972.82
2018-03-01T04:26:39.665Z,972.80
2018-03-01T04:27:39.571Z,972.82
2018-03-01T04:28:39.475Z,972.84
2018-03-01T04:29:39.387Z,972.82
2018-03-01T04:30:39.289Z,972.79
2018-03-01T04:31:39.214Z,972.74
2018-03-01T04:32:39.105Z,972.73
2018-03-01T04:33:39.007Z,972.76
2018-03-01T04:34:38.913Z,972.71
2018-03-01T04:35:38.822Z,972.71
2018-03-01T04:36:38.726Z,972.72
2018-03-01T04:37:38.633Z,972.73
2018-03-01T04:38:38.538Z,972.77
2018-03-01T04:39:38.449Z,972.71
2018-03-01T04:40:38.352Z,972.67
2018-03-01T04:41:38.259Z,972.59
2018-03-01T04:42:38.164Z,972.59
2018-03-01T04:43:38.082Z,972.55
2018-03-01T04:44:37.979Z,972.51
2018-03-01T04:45:37.885Z,972.44
2018-03-01T04:46:37.797Z,972.49
2018-03-01T04:47:37.698Z,972.45
2018-03-01T04:48:37.605Z,972.47
2018-03-01T04:49:37.514Z,972.46
2018-03-01T04:50:37.416Z,972.44
2018-03-01T04:51:37.336Z,972.39
2018-03-01T04:52:37.237Z,972.36
2018-03-01T04:53:37.137Z,972.22
2018-03-01T04:54:37.041Z,972.16
2018-03-01T04:55:36.948Z,972.04
2018-03-01T04:56:36.853Z,971.96
2018-03-01T04:57:36.762Z,971.94
2018-03-01T04:58:36.667Z,971.94
2018-03-01T04:59:36.574Z,972.01
2018-03-01T05:00:36.482Z,972.06
2018-03-01T05:01:36.388Z,972.09
2018-03-01T05:02:36.292Z,972.18
2018-03-01T05:03:36.198Z,972.14
2018-03-01T05:04:36.107Z,972.16
2018-03-01T05:05:36.016Z,972.18
2018-03-01T05:06:35.918Z,972.25
2018-03-01T05:07:35.824Z,972.20
2018-03-01T05:08:35.732Z,972.31
2018-03-01T05:09:35.639Z,972.31
2018-03-01T05:10:35.544Z,972.32
2018-03-01T05:11:35.451Z,972.22
2018-03-01T05:12:35.358Z,972.18
2018-03-01T05:13:35.263Z,972.20
2018-03-01T05:14:35.170Z,972.21
2018-03-01T05:15:35.081Z,972.15
2018-03-01T05:16:34.984Z,972.12
2018-03-01T05:17:34.890Z,972.14
2018-03-01T05:18:34.798Z,972.02
2018-03-01T05:19:34.702Z,972.13
2018-03-01T05:20:34.606Z,972.13
2018-03-01T05:21:34.518Z,972.09
2018-03-01T05:22:34.421Z,972.02
2018-03-01T05:23:34.329Z,971.98
2018-03-01T05:24:34.233Z,971.96
2018-03-01T05:25:34.156Z,971.95
2018-03-01T05:26:34.045Z,972.00
2018-03-01T05:27:33.950Z,972.02
2018-03-01T05:28:33.858Z,972.01
2018-03-01T05:29:33.765Z,971.94
2018-03-01T05:30:33.671Z,971.92
2018-03-01T05:31:33.577Z,971.94
2018-03-01T05:32:33.485Z,971.93
2018-03-01T05:33:33.391Z,971.95
2018-03-01T05:34:33.296Z,971.93
2018-03-01T05:35:33.203Z,971.96
2018-03-01T05:36:33.109Z,971.92
2018-03-01T05:37:33.016Z,971.91
2018-03-01T05:38:32.922Z,971.90
2018-03-01T05:39:32.827Z,971.86
2018-03-01T05:40:32.734Z,971.88
2018-03-01T05:41:32.641Z,971.88
2018-03-01T05:42:32.547Z,971.86
2018-03-01T05:43:32.456Z,971.83
2018-03-01T05:44:32.359Z,971.83
2018-03-01T05:45:32.264Z,971.86
2018-03-01T05:46:32.219Z,971.87
2018-03-01T05:47:32.092Z,971.88
2018-03-01T05:48:31.984Z,971.88
2018-03-01T05:49:31.890Z,971.86
2018-03-01T05:50:31.797Z,971.84
2018-03-01T05:51:31.704Z,971.81
2018-03-01T05:52:31.611Z,971.88
2018-03-01T05:53:31.514Z,971.84
2018-03-01T05:54:31.424Z,971.85
2018-03-01T05:55:31.328Z,971.85
2018-03-01T05:56:31.244Z,971.86
2018-03-01T05:57:31.146Z,971.89
2018-03-01T05:58:31.048Z,971.91
2018-03-01T05:59:30.953Z,971.89
2018-03-01T06:00:30.860Z,971.87
2018-03-01T06:01:30.765Z,971.90
2018-03-01T06:02:30.673Z,971.89
2018-03-01T06:03:30.577Z,971.91
2018-03-01T06:04:30.497Z,971.93
2018-03-01T06:05:30.392Z,971.92
2018-03-01T06:06:30.300Z,971.97
2018-03-01T06:07:30.206Z,971.97
2018-03-01T06:08:30.111Z,971.95
2018-03-01T06:09:30.037Z,971.96
2018-03-01T06:10:29.980Z,971.92
2018-03-01T06:11:29.832Z,971.91
2018-03-01T06:12:29.737Z,971.91
2018-03-01T06:13:29.641Z,971.86
2018-03-01T06:14:29.549Z,971.92
2018-03-01T06:15:29.457Z,971.87
2018-03-01T06:16:29.360Z,971.91
2018-03-01T06:17:29.267Z,971.85
2018-03-01T06:18:29.173Z,971.85
2018-03-01T06:19:29.083Z,971.79
2018-03-01T06:20:28.991Z,971.81
2018-03-01T06:21:28.894Z,971.74
2018-03-01T06:22:28.861Z,971.73
2018-03-01T06:23:28.721Z,971.70
2018-03-01T06:24:28.611Z,971.71
2018-03-01T06:25:28.520Z,971.70
2018-03-01T06:26:28.427Z,971.74
2018-03-01T06:27:28.334Z,971.74
2018-03-01T06:28:28.253Z,971.74
2018-03-01T06:29:28.143Z,971.71
2018-03-01T06:30:28.050Z,971.68
2018-03-01T06:31:27.958Z,971.67
2018-03-01T06:32:27.872Z,971.65
2018-03-01T06:33:27.774Z,971.61
2018-03-01T06:34:27.686Z,971.65
2018-03-01T06:35:27.585Z,971.64
2018-03-01T06:36:27.489Z,971.66
2018-03-01T06:37:27.400Z,971.68
2018-03-01T06:38:27.304Z,971.70
2018-03-01T06:39:27.214Z,971.68
2018-03-01T06:40:27.116Z,971.74
2018-03-01T06:41:27.022Z,971.77
2018-03-01T06:42:26.929Z,971.70
2018-03-01T06:43:26.835Z,971.73
2018-03-01T06:44:26.742Z,971.69
2018-03-01T06:45:26.648Z,971.69
2018-03-01T06:46:26.558Z,971.72
2018-03-01T06:47:26.465Z,971.71
2018-03-01T06:48:26.382Z,971.69
2018-03-01T06:49:26.281Z,971.71
2018-03-01T06:50:26.182Z,971.68
2018-03-01T06:51:26.088Z,971.67
2018-03-01T06:52:25.996Z,971.66
2018-03-01T06:53:25.904Z,971.65
2018-03-01T06:54:25.813Z,971.64
2018-03-01T06:55:25.715Z,971.69
2018-03-01T06:56:25.623Z,971.63
2018-03-01T06:57:25.530Z,971.62
2018-03-01T06:58:25.436Z,971.63
2018-03-01T06:59:25.370Z,971.61
2018-03-01T07:00:25.264Z,971.60
2018-03-01T07:01:25.158Z,971.57
2018-03-01T07:02:25.063Z,971.57
2018-03-01T07:03:24.971Z,971.50
2018-03-01T07:04:24.877Z,971.48
2018-03-01T07:05:24.783Z,971.49
2018-03-01T07:06:24.725Z,971.52
2018-03-01T07:07:24.598Z,971.49
2018-03-01T07:08:24.507Z,971.49
2018-03-01T07:09:24.414Z,971.48
2018-03-01T07:10:24.319Z,971.42
2018-03-01T07:11:24.229Z,971.42
2018-03-01T07:12:24.133Z,971.43
2018-03-01T07:13:24.038Z,971.33
2018-03-01T07:14:23.946Z,971.32
2018-03-01T07:15:23.852Z,971.31
2018-03-01T07:16:23.761Z,971.24
2018-03-01T07:17:23.664Z,971.27
2018-03-01T07:18:23.587Z,971.27
2018-03-01T07:19:23.481Z,971.27
2018-03-01T07:20:23.389Z,971.27
2018-03-01T07:21:23.294Z,971.28
2018-03-01T07:22:23.211Z,971.31
2018-03-01T07:23:23.111Z,971.30
2018-03-01T07:24:23.016Z,971.30
2018-03-01T07:25:22.921Z,971.23
2018-03-01T07:26:22.832Z,971.23
2018-03-01T07:27:22.742Z,971.17
2018-03-01T07:28:22.658Z,971.10
2018-03-01T07:29:22.549Z,971.13
2018-03-01T07:30:22.457Z,971.08
2018-03-01T07:31:22.364Z,971.06
2018-03-01T07:32:22.273Z,971.05
2018-03-01T07:33:22.180Z,971.01
2018-03-01T07:34:22.085Z,971.01
2018-03-01T07:35:22.010Z,971.05
2018-03-01T07:36:21.901Z,971.00
2018-03-01T07:37:21.812Z,971.03
2018-03-01T07:38:21.718Z,971.04
2018-03-01T07:39:21.624Z,971.01
2018-03-01T07:40:21.528Z,970.99
2018-03-01T07:41:21.438Z,971.02
2018-03-01T07:42:21.346Z,970.97
2018-03-01T07:43:21.252Z,970.97
2018-03-01T07:44:21.171Z,970.96
2018-03-01T07:45:21.064Z,970.96
2018-03-01T07:46:20.972Z,970.93
2018-03-01T07:47:20.880Z,970.91
2018-03-01T07:48:20.786Z,970.85
2018-03-01T07:49:20.695Z,970.86
2018-03-01T07:50:20.604Z,970.83
2018-03-01T07:51:20.530Z,970.90
2018-03-01T07:52:20.417Z,970.90
2018-03-01T07:53:20.331Z,970.89
2018-03-01T07:54:20.232Z,970.89
2018-03-01T07:55:20.138Z,970.91
2018-03-01T07:56:20.105Z,970.90
2018-03-01T07:57:19.962Z,970.83
2018-03-01T07:58:19.860Z,970.84
2018-03-01T07:59:19.770Z,970.78
2018-03-01T08:00:19.676Z,970.75
2018-03-01T08:01:19.589Z,970.77
2018-03-01T08:02:19.492Z,970.82
2018-03-01T08:03:19.401Z,970.76
2018-03-01T08:04:19.347Z,970.80
2018-03-01T08:05:19.213Z,970.78
2018-03-01T08:06:19.123Z,970.72
2018-03-01T08:07:19.031Z,970.67
2018-03-01T08:08:18.939Z,970.66
2018-03-01T08:09:18.859Z,970.69
2018-03-01T08:10:18.754Z,970.64
2018-03-01T08:11:18.679Z,970.68
2018-03-01T08:12:18.568Z,970.55
2018-03-01T08:13:18.500Z,970.63
2018-03-01T08:14:18.385Z,970.66
2018-03-01T08:15:18.292Z,970.63
2018-03-01T08:16:18.200Z,970.57
2018-03-01T08:17:18.122Z,970.56
2018-03-01T08:18:18.015Z,970.59
2018-03-01T08:19:17.928Z,970.62
2018-03-01T08:20:17.836Z,970.63
2018-03-01T08:21:17.738Z,970.65
2018-03-01T08:22:17.651Z,970.60
2018-03-01T08:23:17.556Z,970.69
2018-03-01T08:24:17.463Z,970.59
2018-03-01T08:25:17.395Z,970.63
2018-03-01T08:26:17.280Z,970.65
2018-03-01T08:27:17.186Z,970.63
2018-03-01T08:28:17.096Z,970.58
2018-03-01T08:29:17.004Z,970.55
2018-03-01T08:30:16.915Z,970.53
2018-03-01T08:31:16.818Z,970.51
2018-03-01T08:32:16.729Z,970.55
2018-03-01T08:33:16.634Z,970.53
2018-03-01T08:34:16.546Z,970.52
2018-03-01T08:35:16.451Z,970.47
2018-03-01T08:36:16.360Z,970.43
2018-03-01T08:37:16.269Z,970.45
2018-03-01T08:38:16.175Z,970.36
2018-03-01T08:39:16.084Z,970.37
2018-03-01T08:40:15.990Z,970.34
2018-03-01T08:41:15.901Z,970.31
2018-03-01T08:42:15.809Z,970.32
2018-03-01T08:43:15.722Z,970.33
2018-03-01T08:44:15.626Z,970.27
2018-03-01T08:45:15.532Z,970.31
2018-03-01T08:46:15.444Z,970.31
2018-03-01T08:47:15.352Z,970.26
2018-03-01T08:48:15.262Z,970.23
2018-03-01T08:49:15.166Z,970.18
2018-03-01T08:50:15.083Z,970.16
2018-03-01T08:51:14.985Z,970.12
2018-03-01T08:52:14.905Z,970.14
2018-03-01T08:53:14.802Z,970.09
2018-03-01T08:54:14.711Z,970.08
2018-03-01T08:55:14.630Z,970.06
2018-03-01T08:56:14.526Z,970.08
2018-03-01T08:57:14.434Z,970.05
2018-03-01T08:58:14.343Z,970.05
2018-03-01T08:59:14.255Z,970.02
2018-03-01T09:00:14.160Z,970.00
2018-03-01T09:01:14.070Z,969.95
2018-03-01T09:02:13.976Z,969.98
2018-03-01T09:03:13.889Z,969.92
2018-03-01T09:04:13.798Z,969.91
2018-03-01T09:05:13.711Z,969.95
2018-03-01T09:06:13.612Z,969.94
2018-03-01T09:07:13.528Z,969.90
2018-03-01T09:08:13.431Z,969.88
2018-03-01T09:09:13.337Z,969.92
2018-03-01T09:10:13.249Z,969.93
2018-03-01T09:11:13.155Z,969.94
2018-03-01T09:12:13.065Z,969.92
2018-03-01T09:13:12.971Z,969.85
2018-03-01T09:14:12.881Z,969.93
2018-03-01T09:15:12.789Z,969.93
2018-03-01T09:16:12.700Z,969.94
2018-03-01T09:17:12.614Z,969.90
2018-03-01T09:18:12.516Z,969.92
2018-03-01T09:19:12.424Z,969.87
2018-03-01T09:20:12.334Z,969.87
2018-03-01T09:21:12.241Z,969.83
2018-03-01T09:22:12.149Z,969.88
2018-03-01T09:23:12.059Z,969.85
2018-03-01T09:24:11.971Z,969.84
2018-03-01T09:25:11.875Z,969.91
2018-03-01T09:26:11.785Z,969.90
2018-03-01T09:27:11.694Z,969.89
2018-03-01T09:28:11.602Z,969.87
2018-03-01T09:29:11.518Z,969.86
2018-03-01T09:30:11.425Z,969.87
2018-03-01T09:31:11.330Z,969.87
2018-03-01T09:32:11.238Z,969.87
2018-03-01T09:33:11.146Z,969.81
2018-03-01T09:34:11.055Z,969.81
2018-03-01T09:35:10.965Z,969.79
2018-03-01T09:36:10.877Z,969.75
2018-03-01T09:37:10.837Z,969.75
2018-03-01T09:38:10.696Z,969.78
2018-03-01T09:39:10.601Z,969.73
2018-03-01T09:40:10.513Z,969.73
2018-03-01T09:41:10.420Z,969.72
2018-03-01T09:42:10.327Z,969.70
2018-03-01T09:43:10.239Z,969.72
2018-03-01T09:44:10.170Z,969.67
2018-03-01T09:45:10.054Z,969.70
2018-03-01T09:46:09.965Z,969.68
2018-03-01T09:47:09.873Z,969.72
2018-03-01T09:48:09.786Z,969.68
2018-03-01T09:49:09.690Z,969.70
2018-03-01T09:50:09.603Z,969.66
2018-03-01T09:51:09.511Z,969.71
2018-03-01T09:52:09.420Z,969.67
2018-03-01T09:53:09.327Z,969.64
2018-03-01T09:54:09.241Z,969.61
2018-03-01T09:55:09.253Z,969.61
2018-03-01T09:56:09.158Z,969.57
2018-03-01T09:57:08.967Z,969.55
2018-03-01T09:58:08.875Z,969.55
2018-03-01T09:59:08.787Z,969.55
2018-03-01T10:01:51.275Z,969.40
2018-03-01T10:02:51.136Z,969.42
2018-03-01T10:03:51.092Z,969.37
2018-03-01T10:04:50.956Z,969.30
2018-03-01T10:05:50.865Z,969.30
2018-03-01T10:06:50.774Z,969.37
2018-03-01T10:07:50.684Z,969.33
2018-03-01T10:08:50.594Z,969.29
2018-03-01T10:09:50.502Z,969.35
2018-03-01T10:10:50.418Z,969.36
2018-03-01T10:11:50.334Z,969.34
2018-03-01T10:12:50.295Z,969.35
2018-03-01T10:13:50.143Z,969.36
2018-03-01T10:14:50.054Z,969.31
2018-03-01T10:15:49.963Z,969.30
2018-03-01T10:16:49.872Z,969.33
2018-03-01T10:17:49.784Z,969.37
2018-03-01T10:18:49.691Z,969.35
2018-03-01T10:19:49.602Z,969.34
2018-03-01T10:20:49.518Z,969.28
2018-03-01T10:21:49.421Z,969.31
2018-03-01T10:22:49.334Z,969.32
2018-03-01T10:23:49.245Z,969.34
2018-03-01T10:24:49.152Z,969.31
2018-03-01T10:25:49.061Z,969.32
2018-03-01T10:26:48.979Z,969.34
2018-03-01T10:27:48.886Z,969.37
2018-03-01T10:28:48.791Z,969.38
2018-03-01T10:29:48.715Z,969.33
2018-03-01T10:30:48.643Z,969.35
2018-03-01T10:31:48.523Z,969.39
2018-03-01T10:32:48.432Z,969.39
2018-03-01T10:33:48.346Z,969.36
2018-03-01T10:34:48.251Z,969.38
2018-03-01T10:35:48.165Z,969.33
2018-03-01T10:36:48.077Z,969.41
2018-03-01T10:37:47.985Z,969.42
2018-03-01T10:38:47.896Z,969.41
2018-03-01T10:39:47.806Z,969.32
2018-03-01T10:40:47.718Z,969.32
2018-03-01T10:41:47.635Z,969.30
2018-03-01T10:42:47.539Z,969.28
2018-03-01T10:43:47.451Z,969.23
2018-03-01T10:44:47.361Z,969.27
2018-03-01T10:45:47.269Z,969.24
2018-03-01T10:46:47.184Z,969.25
2018-03-01T10:47:47.093Z,969.28
2018-03-01T10:48:47.002Z,969.24
2018-03-01T10:49:46.915Z,969.29
2018-03-01T10:50:46.870Z,969.25
2018-03-01T10:51:46.735Z,969.27
2018-03-01T10:52:46.653Z,969.20
2018-03-01T10:53:46.574Z,969.09
2018-03-01T10:54:46.468Z,969.18
2018-03-01T10:55:46.380Z,969.14
2018-03-01T10:56:46.336Z,969.16
2018-03-01T10:57:46.201Z,969.09
2018-03-01T10:58:46.112Z,969.13
2018-03-01T10:59:46.026Z,969.13
2018-03-01T11:00:45.935Z,969.13
2018-03-01T11:01:45.853Z,969.16
2018-03-01T11:02:45.759Z,969.15
2018-03-01T11:03:45.670Z,969.11
2018-03-01T11:04:45.585Z,969.08
2018-03-01T11:05:45.491Z,969.09
2018-03-01T11:06:45.405Z,969.10
2018-03-01T11:07:45.322Z,969.05
2018-03-01T11:08:45.231Z,969.06
2018-03-01T11:09:45.138Z,969.14
2018-03-01T11:10:46.263Z,969.03
2018-03-01T11:11:44.962Z,969.06
2018-03-01T11:12:44.879Z,969.08
2018-03-01T11:13:44.785Z,969.10
2018-03-01T11:14:44.701Z,969.13
2018-03-01T11:15:44.610Z,969.17
2018-03-01T11:16:44.525Z,969.21
2018-03-01T11:17:44.448Z,969.28
2018-03-01T11:18:44.354Z,969.23
2018-03-01T11:19:44.268Z,969.20
2018-03-01T11:20:44.186Z,969.24
2018-03-01T11:21:44.095Z,969.25
2018-03-01T11:22:44.010Z,969.16
2018-03-01T11:23:43.927Z,969.15
2018-03-01T11:24:43.844Z,969.13
2018-03-01T11:25:43.787Z,969.10
2018-03-01T11:26:43.678Z,969.11
2018-03-01T11:27:43.598Z,969.03
2018-03-01T11:28:43.514Z,969.10
2018-03-01T11:29:43.433Z,969.05
2018-03-01T11:30:43.363Z,969.01
2018-03-01T11:31:43.273Z,969.05
2018-03-01T11:32:43.192Z,969.03
2018-03-01T11:33:43.110Z,969.03
2018-03-01T11:34:43.053Z,968.98
2018-03-01T11:35:42.953Z,968.98
2018-03-01T11:36:42.872Z,968.90
2018-03-01T11:37:42.793Z,968.91
2018-03-01T11:38:42.714Z,968.96
2018-03-01T11:39:42.635Z,968.91
2018-03-01T11:40:42.556Z,968.88
2018-03-01T11:41:42.477Z,968.84
2018-03-01T11:42:42.400Z,968.84
2018-03-01T11:43:42.321Z,968.91
2018-03-01T11:44:42.244Z,968.90
2018-03-01T11:45:42.172Z,968.97
2018-03-01T11:46:42.085Z,968.85
2018-03-01T11:47:42.012Z,968.92
2018-03-01T11:48:41.933Z,968.95
2018-03-01T11:49:41.851Z,968.85
2018-03-01T11:50:41.773Z,968.84
2018-03-01T11:51:41.696Z,968.84
2018-03-01T11:52:41.622Z,968.86
2018-03-01T11:53:41.544Z,968.82
2018-03-01T11:54:41.462Z,968.87
2018-03-01T11:55:41.387Z,968.90
2018-03-01T11:56:41.310Z,968.89
2018-03-01T11:57:41.246Z,968.84
2018-03-01T11:58:41.155Z,968.81
2018-03-01T11:59:41.079Z,968.78
2018-03-01T12:00:41.008Z,968.79
2018-03-01T12:01:40.931Z,968.75
2018-03-01T12:02:40.855Z,968.67
2018-03-01T12:03:40.776Z,968.73
2018-03-01T12:04:40.708Z,968.69
2018-03-01T12:05:40.627Z,968.76
2018-03-01T12:06:40.556Z,968.73
2018-03-01T12:07:40.478Z,968.77
2018-03-01T12:08:40.407Z,968.68
2018-03-01T12:09:40.343Z,968.66
2018-03-01T12:10:40.303Z,968.70
2018-03-01T12:11:40.180Z,968.72
2018-03-01T12:12:40.106Z,968.72
2018-03-01T12:13:40.033Z,968.63
2018-03-01T12:14:39.957Z,968.66
2018-03-01T12:15:39.927Z,968.65
2018-03-01T12:16:39.864Z,968.64
2018-03-01T12:17:39.735Z,968.60
2018-03-01T12:18:39.660Z,968.66
2018-03-01T12:19:39.589Z,968.60
2018-03-01T12:20:39.511Z,968.57
2018-03-01T12:21:39.437Z,968.53
2018-03-01T12:22:39.358Z,968.54
2018-03-01T12:23:39.286Z,968.49
2018-03-01T12:24:39.213Z,968.50
2018-03-01T12:25:39.136Z,968.49
2018-03-01T12:26:39.058Z,968.47
2018-03-01T12:27:38.983Z,968.50
2018-03-01T12:28:38.905Z,968.54